sensor_id;sensor_type;location;lat;lon;timestamp;P1;durP1;ratioP1;P2;durP2;ratioP2
7783;SDS011;19359;51.402;6.778;2024-02-23T00:01:50;643.20;;;104.25;;
7783;SDS011;19359;51.402;6.778;2024-02-23T00:04:17;644.70;;;104.07;;
7783;SDS011;19359;51.402;6.778;2024-02-23T00:06:44;643.38;;;103.53;;
7783;SDS011;19359;51.402;6.778;2024-02-23T00:09:11;643.10;;;104.38;;
7783;SDS011;19359;51.402;6.778;2024-02-23T00:11:40;641.15;;;103.65;;
7783;SDS011;19359;51.402;6.778;2024-02-23T00:14:09;644.60;;;107.13;;
7783;SDS011;19359;51.402;6.778;2024-02-23T00:16:39;643.28;;;104.38;;
7783;SDS011;19359;51.402;6.778;2024-02-23T00:19:07;646.03;;;107.55;;
7783;SDS011;19359;51.402;6.778;2024-02-23T00:21:34;641.28;;;104.95;;
7783;SDS011;19359;51.402;6.778;2024-02-23T00:24:01;645.47;;;106.28;;
7783;SDS011;19359;51.402;6.778;2024-02-23T00:26:28;641.60;;;104.90;;
7783;SDS011;19359;51.402;6.778;2024-02-23T00:28:56;646.38;;;107.72;;
7783;SDS011;19359;51.402;6.778;2024-02-23T00:31:23;638.00;;;102.82;;
7783;SDS011;19359;51.402;6.778;2024-02-23T00:33:50;643.13;;;104.25;;
7783;SDS011;19359;51.402;6.778;2024-02-23T00:36:17;645.92;;;106.90;;
7783;SDS011;19359;51.402;6.778;2024-02-23T00:38:44;649.00;;;108.05;;
7783;SDS011;19359;51.402;6.778;2024-02-23T00:41:11;647.13;;;106.85;;
7783;SDS011;19359;51.402;6.778;2024-02-23T00:43:38;648.13;;;108.05;;
7783;SDS011;19359;51.402;6.778;2024-02-23T00:46:06;653.85;;;109.05;;
7783;SDS011;19359;51.402;6.778;2024-02-23T00:48:33;655.67;;;108.57;;
7783;SDS011;19359;51.402;6.778;2024-02-23T00:51:00;651.15;;;108.00;;
7783;SDS011;19359;51.402;6.778;2024-02-23T00:53:28;650.08;;;108.13;;
7783;SDS011;19359;51.402;6.778;2024-02-23T00:55:56;648.58;;;107.63;;
7783;SDS011;19359;51.402;6.778;2024-02-23T00:58:23;646.60;;;106.40;;
7783;SDS011;19359;51.402;6.778;2024-02-23T01:00:50;648.15;;;106.80;;
7783;SDS011;19359;51.402;6.778;2024-02-23T01:03:18;648.85;;;107.60;;
7783;SDS011;19359;51.402;6.778;2024-02-23T01:05:45;642.22;;;104.88;;
7783;SDS011;19359;51.402;6.778;2024-02-23T01:08:12;643.10;;;104.03;;
7783;SDS011;19359;51.402;6.778;2024-02-23T01:10:38;640.33;;;104.22;;
7783;SDS011;19359;51.402;6.778;2024-02-23T01:13:05;644.92;;;103.93;;
7783;SDS011;19359;51.402;6.778;2024-02-23T01:15:32;643.00;;;102.13;;
7783;SDS011;19359;51.402;6.778;2024-02-23T01:17:59;642.83;;;105.70;;
7783;SDS011;19359;51.402;6.778;2024-02-23T01:20:27;643.47;;;102.95;;
7783;SDS011;19359;51.402;6.778;2024-02-23T01:22:54;639.85;;;103.00;;
7783;SDS011;19359;51.402;6.778;2024-02-23T01:25:21;641.40;;;103.95;;
7783;SDS011;19359;51.402;6.778;2024-02-23T01:27:47;644.85;;;107.10;;
7783;SDS011;19359;51.402;6.778;2024-02-23T01:30:14;642.15;;;105.75;;
7783;SDS011;19359;51.402;6.778;2024-02-23T01:32:41;639.80;;;104.63;;
7783;SDS011;19359;51.402;6.778;2024-02-23T01:35:08;647.10;;;107.28;;
7783;SDS011;19359;51.402;6.778;2024-02-23T01:37:36;645.50;;;107.10;;
7783;SDS011;19359;51.402;6.778;2024-02-23T01:40:03;642.38;;;105.25;;
7783;SDS011;19359;51.402;6.778;2024-02-23T01:42:31;647.60;;;106.57;;
7783;SDS011;19359;51.402;6.778;2024-02-23T01:44:58;646.50;;;106.40;;
7783;SDS011;19359;51.402;6.778;2024-02-23T01:47:26;644.92;;;105.28;;
7783;SDS011;19359;51.402;6.778;2024-02-23T01:49:54;643.83;;;104.38;;
7783;SDS011;19359;51.402;6.778;2024-02-23T01:52:22;643.92;;;105.80;;
7783;SDS011;19359;51.402;6.778;2024-02-23T01:54:50;642.83;;;102.97;;
7783;SDS011;19359;51.402;6.778;2024-02-23T01:57:18;642.15;;;103.72;;
7783;SDS011;19359;51.402;6.778;2024-02-23T01:59:44;642.65;;;104.60;;
7783;SDS011;19359;51.402;6.778;2024-02-23T02:02:11;643.53;;;104.53;;
7783;SDS011;19359;51.402;6.778;2024-02-23T02:04:38;643.55;;;103.90;;
7783;SDS011;19359;51.402;6.778;2024-02-23T02:07:05;643.38;;;105.57;;
7783;SDS011;19359;51.402;6.778;2024-02-23T02:09:31;643.53;;;104.72;;
7783;SDS011;19359;51.402;6.778;2024-02-23T02:12:00;643.95;;;107.40;;
7783;SDS011;19359;51.402;6.778;2024-02-23T02:14:27;641.33;;;104.57;;
7783;SDS011;19359;51.402;6.778;2024-02-23T02:16:56;648.33;;;107.22;;
7783;SDS011;19359;51.402;6.778;2024-02-23T02:19:23;645.78;;;105.93;;
7783;SDS011;19359;51.402;6.778;2024-02-23T02:21:50;644.47;;;107.30;;
7783;SDS011;19359;51.402;6.778;2024-02-23T02:24:16;640.00;;;101.97;;
7783;SDS011;19359;51.402;6.778;2024-02-23T02:26:43;638.83;;;102.13;;
7783;SDS011;19359;51.402;6.778;2024-02-23T02:29:13;641.53;;;103.38;;
7783;SDS011;19359;51.402;6.778;2024-02-23T02:31:40;639.00;;;102.63;;
7783;SDS011;19359;51.402;6.778;2024-02-23T02:34:07;640.60;;;101.63;;
7783;SDS011;19359;51.402;6.778;2024-02-23T02:36:34;637.30;;;103.65;;
7783;SDS011;19359;51.402;6.778;2024-02-23T02:39:01;636.22;;;103.15;;
7783;SDS011;19359;51.402;6.778;2024-02-23T02:41:28;636.53;;;102.07;;
7783;SDS011;19359;51.402;6.778;2024-02-23T02:43:55;636.25;;;101.30;;
7783;SDS011;19359;51.402;6.778;2024-02-23T02:46:23;636.15;;;100.78;;
7783;SDS011;19359;51.402;6.778;2024-02-23T02:48:50;632.28;;;102.15;;
7783;SDS011;19359;51.402;6.778;2024-02-23T02:51:17;639.08;;;102.57;;
7783;SDS011;19359;51.402;6.778;2024-02-23T02:53:43;634.25;;;100.82;;
7783;SDS011;19359;51.402;6.778;2024-02-23T02:56:10;633.42;;;99.85;;
7783;SDS011;19359;51.402;6.778;2024-02-23T02:58:37;631.88;;;98.43;;
7783;SDS011;19359;51.402;6.778;2024-02-23T03:01:03;636.90;;;100.65;;
7783;SDS011;19359;51.402;6.778;2024-02-23T03:03:32;635.78;;;101.90;;
7783;SDS011;19359;51.402;6.778;2024-02-23T03:05:58;636.33;;;100.55;;
7783;SDS011;19359;51.402;6.778;2024-02-23T03:08:25;633.60;;;99.90;;
7783;SDS011;19359;51.402;6.778;2024-02-23T03:10:52;630.63;;;99.93;;
7783;SDS011;19359;51.402;6.778;2024-02-23T03:13:19;635.28;;;101.22;;
7783;SDS011;19359;51.402;6.778;2024-02-23T03:15:45;633.72;;;102.25;;
7783;SDS011;19359;51.402;6.778;2024-02-23T03:18:12;631.35;;;101.00;;
7783;SDS011;19359;51.402;6.778;2024-02-23T03:20:41;635.22;;;103.10;;
7783;SDS011;19359;51.402;6.778;2024-02-23T03:23:08;632.95;;;100.43;;
7783;SDS011;19359;51.402;6.778;2024-02-23T03:25:34;637.75;;;102.18;;
7783;SDS011;19359;51.402;6.778;2024-02-23T03:28:01;634.67;;;102.05;;
7783;SDS011;19359;51.402;6.778;2024-02-23T03:30:28;632.42;;;100.18;;
7783;SDS011;19359;51.402;6.778;2024-02-23T03:32:55;632.30;;;101.07;;
7783;SDS011;19359;51.402;6.778;2024-02-23T03:35:21;633.83;;;103.25;;
7783;SDS011;19359;51.402;6.778;2024-02-23T03:37:49;632.38;;;100.35;;
7783;SDS011;19359;51.402;6.778;2024-02-23T03:40:16;634.50;;;103.32;;
7783;SDS011;19359;51.402;6.778;2024-02-23T03:42:44;633.50;;;101.07;;
7783;SDS011;19359;51.402;6.778;2024-02-23T03:45:11;634.75;;;102.28;;
7783;SDS011;19359;51.402;6.778;2024-02-23T03:47:38;631.60;;;101.43;;
7783;SDS011;19359;51.402;6.778;2024-02-23T03:50:05;638.83;;;102.25;;
7783;SDS011;19359;51.402;6.778;2024-02-23T03:52:33;631.10;;;101.93;;
7783;SDS011;19359;51.402;6.778;2024-02-23T03:55:01;631.92;;;99.68;;
7783;SDS011;19359;51.402;6.778;2024-02-23T03:57:28;632.20;;;102.20;;
7783;SDS011;19359;51.402;6.778;2024-02-23T03:59:55;634.95;;;101.40;;
7783;SDS011;19359;51.402;6.778;2024-02-23T04:02:23;637.80;;;102.85;;
7783;SDS011;19359;51.402;6.778;2024-02-23T04:04:49;637.65;;;103.10;;
7783;SDS011;19359;51.402;6.778;2024-02-23T04:07:16;642.22;;;105.20;;
7783;SDS011;19359;51.402;6.778;2024-02-23T04:09:43;639.58;;;103.22;;
7783;SDS011;19359;51.402;6.778;2024-02-23T04:12:11;638.90;;;102.88;;
7783;SDS011;19359;51.402;6.778;2024-02-23T04:14:38;637.85;;;102.50;;
7783;SDS011;19359;51.402;6.778;2024-02-23T04:17:05;639.45;;;104.90;;
7783;SDS011;19359;51.402;6.778;2024-02-23T04:19:32;635.65;;;103.72;;
7783;SDS011;19359;51.402;6.778;2024-02-23T04:21:59;637.15;;;104.22;;
7783;SDS011;19359;51.402;6.778;2024-02-23T04:24:25;638.15;;;104.20;;
7783;SDS011;19359;51.402;6.778;2024-02-23T04:26:52;636.08;;;102.80;;
7783;SDS011;19359;51.402;6.778;2024-02-23T04:29:20;638.58;;;102.85;;
7783;SDS011;19359;51.402;6.778;2024-02-23T04:31:47;637.58;;;104.22;;
7783;SDS011;19359;51.402;6.778;2024-02-23T04:34:14;638.05;;;102.88;;
7783;SDS011;19359;51.402;6.778;2024-02-23T04:36:41;639.78;;;103.75;;
7783;SDS011;19359;51.402;6.778;2024-02-23T04:39:08;638.88;;;103.32;;
7783;SDS011;19359;51.402;6.778;2024-02-23T04:41:35;636.65;;;103.30;;
7783;SDS011;19359;51.402;6.778;2024-02-23T04:44:01;637.45;;;101.72;;
7783;SDS011;19359;51.402;6.778;2024-02-23T04:46:30;638.47;;;105.05;;
7783;SDS011;19359;51.402;6.778;2024-02-23T04:48:57;634.83;;;101.47;;
7783;SDS011;19359;51.402;6.778;2024-02-23T04:51:24;634.20;;;100.88;;
7783;SDS011;19359;51.402;6.778;2024-02-23T04:53:50;637.72;;;102.20;;
7783;SDS011;19359;51.402;6.778;2024-02-23T04:56:17;636.65;;;104.72;;
7783;SDS011;19359;51.402;6.778;2024-02-23T04:58:44;637.10;;;103.55;;
7783;SDS011;19359;51.402;6.778;2024-02-23T05:01:11;637.97;;;103.38;;
7783;SDS011;19359;51.402;6.778;2024-02-23T05:03:39;636.60;;;104.05;;
7783;SDS011;19359;51.402;6.778;2024-02-23T05:06:05;639.28;;;105.55;;
7783;SDS011;19359;51.402;6.778;2024-02-23T05:08:32;635.20;;;103.32;;
7783;SDS011;19359;51.402;6.778;2024-02-23T05:10:59;635.55;;;102.13;;
7783;SDS011;19359;51.402;6.778;2024-02-23T05:13:26;637.00;;;104.07;;
7783;SDS011;19359;51.402;6.778;2024-02-23T05:15:54;637.72;;;103.57;;
7783;SDS011;19359;51.402;6.778;2024-02-23T05:18:22;637.00;;;104.20;;
7783;SDS011;19359;51.402;6.778;2024-02-23T05:20:50;638.58;;;102.82;;
7783;SDS011;19359;51.402;6.778;2024-02-23T05:23:16;640.63;;;107.38;;
7783;SDS011;19359;51.402;6.778;2024-02-23T05:25:43;637.03;;;102.93;;
7783;SDS011;19359;51.402;6.778;2024-02-23T05:28:10;634.20;;;103.57;;
7783;SDS011;19359;51.402;6.778;2024-02-23T05:30:37;636.80;;;102.93;;
7783;SDS011;19359;51.402;6.778;2024-02-23T05:33:03;636.75;;;103.38;;
7783;SDS011;19359;51.402;6.778;2024-02-23T05:35:30;636.45;;;105.13;;
7783;SDS011;19359;51.402;6.778;2024-02-23T05:38:01;634.80;;;104.78;;
7783;SDS011;19359;51.402;6.778;2024-02-23T05:40:27;633.97;;;103.07;;
7783;SDS011;19359;51.402;6.778;2024-02-23T05:42:54;632.75;;;103.70;;
7783;SDS011;19359;51.402;6.778;2024-02-23T05:45:21;631.38;;;102.30;;
7783;SDS011;19359;51.402;6.778;2024-02-23T05:47:48;633.67;;;104.97;;
7783;SDS011;19359;51.402;6.778;2024-02-23T05:50:15;630.22;;;103.10;;
7783;SDS011;19359;51.402;6.778;2024-02-23T05:52:42;634.78;;;104.20;;
7783;SDS011;19359;51.402;6.778;2024-02-23T05:58:38;631.08;;;102.45;;
7783;SDS011;19359;51.402;6.778;2024-02-23T06:01:05;635.63;;;102.07;;
7783;SDS011;19359;51.402;6.778;2024-02-23T06:03:32;629.55;;;102.63;;
7783;SDS011;19359;51.402;6.778;2024-02-23T06:05:59;629.25;;;102.03;;
7783;SDS011;19359;51.402;6.778;2024-02-23T06:08:25;632.28;;;102.32;;
7783;SDS011;19359;51.402;6.778;2024-02-23T06:10:52;637.58;;;104.43;;
7783;SDS011;19359;51.402;6.778;2024-02-23T06:13:19;637.67;;;106.60;;
7783;SDS011;19359;51.402;6.778;2024-02-23T06:15:47;637.13;;;105.57;;
7783;SDS011;19359;51.402;6.778;2024-02-23T06:18:14;634.67;;;103.80;;
7783;SDS011;19359;51.402;6.778;2024-02-23T06:20:40;633.80;;;103.78;;
7783;SDS011;19359;51.402;6.778;2024-02-23T06:23:07;633.35;;;105.10;;
7783;SDS011;19359;51.402;6.778;2024-02-23T06:25:34;637.50;;;104.60;;
7783;SDS011;19359;51.402;6.778;2024-02-23T06:28:01;635.90;;;103.22;;
7783;SDS011;19359;51.402;6.778;2024-02-23T06:30:28;639.42;;;103.70;;
7783;SDS011;19359;51.402;6.778;2024-02-23T06:32:56;636.20;;;104.20;;
7783;SDS011;19359;51.402;6.778;2024-02-23T06:35:22;635.17;;;104.90;;
7783;SDS011;19359;51.402;6.778;2024-02-23T06:37:49;637.25;;;104.05;;
7783;SDS011;19359;51.402;6.778;2024-02-23T06:40:16;638.53;;;105.05;;
7783;SDS011;19359;51.402;6.778;2024-02-23T06:42:43;639.33;;;104.10;;
7783;SDS011;19359;51.402;6.778;2024-02-23T06:45:10;632.70;;;103.60;;
7783;SDS011;19359;51.402;6.778;2024-02-23T06:47:36;635.15;;;103.50;;
7783;SDS011;19359;51.402;6.778;2024-02-23T06:50:06;633.90;;;102.32;;
7783;SDS011;19359;51.402;6.778;2024-02-23T06:52:33;633.25;;;102.50;;
7783;SDS011;19359;51.402;6.778;2024-02-23T06:55:00;635.67;;;106.55;;
7783;SDS011;19359;51.402;6.778;2024-02-23T06:57:27;632.22;;;103.88;;
7783;SDS011;19359;51.402;6.778;2024-02-23T06:59:53;635.35;;;103.13;;
7783;SDS011;19359;51.402;6.778;2024-02-23T07:02:20;632.13;;;104.47;;
7783;SDS011;19359;51.402;6.778;2024-02-23T07:04:47;630.00;;;101.28;;
7783;SDS011;19359;51.402;6.778;2024-02-23T07:07:15;628.30;;;101.65;;
7783;SDS011;19359;51.402;6.778;2024-02-23T07:09:41;630.08;;;103.07;;
7783;SDS011;19359;51.402;6.778;2024-02-23T07:12:08;635.30;;;104.53;;
7783;SDS011;19359;51.402;6.778;2024-02-23T07:14:38;633.92;;;102.78;;
7783;SDS011;19359;51.402;6.778;2024-02-23T07:17:05;636.15;;;104.03;;
7783;SDS011;19359;51.402;6.778;2024-02-23T07:19:33;633.95;;;106.32;;
7783;SDS011;19359;51.402;6.778;2024-02-23T07:21:59;632.60;;;105.05;;
7783;SDS011;19359;51.402;6.778;2024-02-23T07:24:28;633.50;;;105.32;;
7783;SDS011;19359;51.402;6.778;2024-02-23T07:26:55;631.85;;;105.60;;
7783;SDS011;19359;51.402;6.778;2024-02-23T07:29:21;632.42;;;105.35;;
7783;SDS011;19359;51.402;6.778;2024-02-23T07:31:48;631.80;;;102.85;;
7783;SDS011;19359;51.402;6.778;2024-02-23T07:34:15;632.58;;;104.38;;
7783;SDS011;19359;51.402;6.778;2024-02-23T07:36:41;637.33;;;104.22;;
7783;SDS011;19359;51.402;6.778;2024-02-23T07:39:08;632.47;;;104.50;;
7783;SDS011;19359;51.402;6.778;2024-02-23T07:41:38;638.17;;;106.43;;
7783;SDS011;19359;51.402;6.778;2024-02-23T07:44:04;638.13;;;106.78;;
7783;SDS011;19359;51.402;6.778;2024-02-23T07:46:31;637.08;;;105.47;;
7783;SDS011;19359;51.402;6.778;2024-02-23T07:48:58;641.15;;;105.85;;
7783;SDS011;19359;51.402;6.778;2024-02-23T07:51:24;631.80;;;102.45;;
7783;SDS011;19359;51.402;6.778;2024-02-23T07:53:51;634.78;;;105.72;;
7783;SDS011;19359;51.402;6.778;2024-02-23T07:56:18;632.03;;;103.03;;
7783;SDS011;19359;51.402;6.778;2024-02-23T07:58:46;635.45;;;105.93;;
7783;SDS011;19359;51.402;6.778;2024-02-23T08:01:13;634.90;;;105.40;;
7783;SDS011;19359;51.402;6.778;2024-02-23T08:03:40;635.85;;;106.25;;
7783;SDS011;19359;51.402;6.778;2024-02-23T08:06:07;633.30;;;103.70;;
7783;SDS011;19359;51.402;6.778;2024-02-23T08:08:34;634.97;;;104.13;;
7783;SDS011;19359;51.402;6.778;2024-02-23T08:11:01;635.40;;;106.22;;
7783;SDS011;19359;51.402;6.778;2024-02-23T08:13:28;636.85;;;106.90;;
7783;SDS011;19359;51.402;6.778;2024-02-23T08:15:56;638.40;;;108.07;;
7783;SDS011;19359;51.402;6.778;2024-02-23T08:18:23;639.35;;;106.78;;
7783;SDS011;19359;51.402;6.778;2024-02-23T08:20:50;635.03;;;104.68;;
7783;SDS011;19359;51.402;6.778;2024-02-23T08:23:17;637.95;;;107.90;;
7783;SDS011;19359;51.402;6.778;2024-02-23T08:25:45;636.70;;;106.88;;
7783;SDS011;19359;51.402;6.778;2024-02-23T08:28:13;635.65;;;105.63;;
7783;SDS011;19359;51.402;6.778;2024-02-23T08:30:39;633.58;;;105.28;;
7783;SDS011;19359;51.402;6.778;2024-02-23T08:33:07;636.03;;;105.82;;
7783;SDS011;19359;51.402;6.778;2024-02-23T08:35:35;633.92;;;104.60;;
7783;SDS011;19359;51.402;6.778;2024-02-23T08:38:02;637.85;;;108.28;;
7783;SDS011;19359;51.402;6.778;2024-02-23T08:40:29;638.58;;;105.93;;
7783;SDS011;19359;51.402;6.778;2024-02-23T08:42:56;638.88;;;107.00;;
7783;SDS011;19359;51.402;6.778;2024-02-23T08:45:23;635.63;;;105.80;;
7783;SDS011;19359;51.402;6.778;2024-02-23T08:47:49;637.20;;;107.60;;
7783;SDS011;19359;51.402;6.778;2024-02-23T08:50:26;631.60;;;105.53;;
7783;SDS011;19359;51.402;6.778;2024-02-23T08:52:53;635.08;;;108.47;;
7783;SDS011;19359;51.402;6.778;2024-02-23T08:55:20;637.17;;;108.78;;
7783;SDS011;19359;51.402;6.778;2024-02-23T08:57:47;636.50;;;105.15;;
7783;SDS011;19359;51.402;6.778;2024-02-23T09:00:14;641.40;;;108.10;;
7783;SDS011;19359;51.402;6.778;2024-02-23T09:02:41;635.47;;;107.82;;
7783;SDS011;19359;51.402;6.778;2024-02-23T09:05:08;634.88;;;106.50;;
7783;SDS011;19359;51.402;6.778;2024-02-23T09:07:36;638.97;;;109.03;;
7783;SDS011;19359;51.402;6.778;2024-02-23T09:10:03;642.60;;;110.10;;
7783;SDS011;19359;51.402;6.778;2024-02-23T09:12:30;640.22;;;109.95;;
7783;SDS011;19359;51.402;6.778;2024-02-23T09:14:57;643.15;;;110.15;;
7783;SDS011;19359;51.402;6.778;2024-02-23T09:17:24;645.50;;;113.68;;
7783;SDS011;19359;51.402;6.778;2024-02-23T09:19:50;643.33;;;114.78;;
7783;SDS011;19359;51.402;6.778;2024-02-23T09:22:17;644.03;;;113.60;;
7783;SDS011;19359;51.402;6.778;2024-02-23T09:24:45;644.50;;;113.72;;
7783;SDS011;19359;51.402;6.778;2024-02-23T09:27:12;643.30;;;113.28;;
7783;SDS011;19359;51.402;6.778;2024-02-23T09:29:40;642.40;;;112.70;;
7783;SDS011;19359;51.402;6.778;2024-02-23T09:32:06;638.00;;;111.20;;
7783;SDS011;19359;51.402;6.778;2024-02-23T09:34:33;642.28;;;113.82;;
7783;SDS011;19359;51.402;6.778;2024-02-23T09:37:00;642.88;;;112.35;;
7783;SDS011;19359;51.402;6.778;2024-02-23T09:39:27;646.45;;;112.72;;
7783;SDS011;19359;51.402;6.778;2024-02-23T09:41:56;644.05;;;113.90;;
7783;SDS011;19359;51.402;6.778;2024-02-23T09:44:23;646.45;;;115.53;;
7783;SDS011;19359;51.402;6.778;2024-02-23T09:46:52;646.83;;;114.50;;
7783;SDS011;19359;51.402;6.778;2024-02-23T09:49:18;645.75;;;115.00;;
7783;SDS011;19359;51.402;6.778;2024-02-23T09:51:45;641.65;;;112.90;;
7783;SDS011;19359;51.402;6.778;2024-02-23T09:54:12;639.83;;;111.53;;
7783;SDS011;19359;51.402;6.778;2024-02-23T09:56:39;640.33;;;112.53;;
7783;SDS011;19359;51.402;6.778;2024-02-23T09:59:07;645.15;;;115.18;;
7783;SDS011;19359;51.402;6.778;2024-02-23T10:01:34;638.58;;;110.60;;
7783;SDS011;19359;51.402;6.778;2024-02-23T10:04:02;641.70;;;112.60;;
7783;SDS011;19359;51.402;6.778;2024-02-23T10:06:31;643.95;;;114.13;;
7783;SDS011;19359;51.402;6.778;2024-02-23T10:08:58;637.20;;;109.43;;
7783;SDS011;19359;51.402;6.778;2024-02-23T10:11:25;641.42;;;112.97;;
7783;SDS011;19359;51.402;6.778;2024-02-23T10:13:51;638.90;;;111.07;;
7783;SDS011;19359;51.402;6.778;2024-02-23T10:16:19;638.97;;;112.03;;
7783;SDS011;19359;51.402;6.778;2024-02-23T10:18:47;639.15;;;112.97;;
7783;SDS011;19359;51.402;6.778;2024-02-23T10:21:14;641.90;;;115.75;;
7783;SDS011;19359;51.402;6.778;2024-02-23T10:23:41;638.60;;;112.13;;
7783;SDS011;19359;51.402;6.778;2024-02-23T10:26:10;643.53;;;116.30;;
7783;SDS011;19359;51.402;6.778;2024-02-23T10:28:37;640.20;;;114.15;;
7783;SDS011;19359;51.402;6.778;2024-02-23T10:31:04;641.13;;;114.25;;
7783;SDS011;19359;51.402;6.778;2024-02-23T10:33:32;637.58;;;113.35;;
7783;SDS011;19359;51.402;6.778;2024-02-23T10:36:01;639.15;;;113.15;;
7783;SDS011;19359;51.402;6.778;2024-02-23T10:38:31;641.17;;;117.43;;
7783;SDS011;19359;51.402;6.778;2024-02-23T10:40:58;638.28;;;113.40;;
7783;SDS011;19359;51.402;6.778;2024-02-23T10:43:29;641.55;;;117.07;;
7783;SDS011;19359;51.402;6.778;2024-02-23T10:45:59;640.58;;;114.50;;
7783;SDS011;19359;51.402;6.778;2024-02-23T10:48:27;639.83;;;115.90;;
7783;SDS011;19359;51.402;6.778;2024-02-23T10:50:56;639.58;;;115.85;;
7783;SDS011;19359;51.402;6.778;2024-02-23T10:53:24;640.97;;;116.35;;
7783;SDS011;19359;51.402;6.778;2024-02-23T10:55:51;640.67;;;113.88;;
7783;SDS011;19359;51.402;6.778;2024-02-23T10:58:22;641.42;;;117.68;;
7783;SDS011;19359;51.402;6.778;2024-02-23T11:00:48;642.50;;;115.13;;
7783;SDS011;19359;51.402;6.778;2024-02-23T11:03:15;641.47;;;114.47;;
7783;SDS011;19359;51.402;6.778;2024-02-23T11:05:47;642.10;;;115.90;;
7783;SDS011;19359;51.402;6.778;2024-02-23T11:08:15;641.92;;;116.43;;
7783;SDS011;19359;51.402;6.778;2024-02-23T11:10:48;641.85;;;114.95;;
7783;SDS011;19359;51.402;6.778;2024-02-23T11:13:16;638.00;;;114.18;;
7783;SDS011;19359;51.402;6.778;2024-02-23T11:15:43;637.75;;;115.80;;
7783;SDS011;19359;51.402;6.778;2024-02-23T11:18:21;639.67;;;115.47;;
7783;SDS011;19359;51.402;6.778;2024-02-23T11:20:53;639.33;;;116.55;;
7783;SDS011;19359;51.402;6.778;2024-02-23T11:23:22;639.08;;;114.05;;
7783;SDS011;19359;51.402;6.778;2024-02-23T11:25:59;639.08;;;114.82;;
7783;SDS011;19359;51.402;6.778;2024-02-23T11:28:31;638.92;;;114.85;;
7783;SDS011;19359;51.402;6.778;2024-02-23T11:30:58;648.10;;;118.18;;
7783;SDS011;19359;51.402;6.778;2024-02-23T11:33:27;645.65;;;117.00;;
7783;SDS011;19359;51.402;6.778;2024-02-23T11:36:04;647.47;;;116.22;;
7783;SDS011;19359;51.402;6.778;2024-02-23T11:38:33;638.25;;;113.47;;
7783;SDS011;19359;51.402;6.778;2024-02-23T11:41:00;640.80;;;114.28;;
7783;SDS011;19359;51.402;6.778;2024-02-23T11:43:28;640.28;;;114.72;;
7783;SDS011;19359;51.402;6.778;2024-02-23T11:45:55;640.38;;;114.13;;
7783;SDS011;19359;51.402;6.778;2024-02-23T11:48:22;638.72;;;113.18;;
7783;SDS011;19359;51.402;6.778;2024-02-23T11:50:49;642.90;;;117.95;;
7783;SDS011;19359;51.402;6.778;2024-02-23T11:53:16;643.83;;;116.53;;
7783;SDS011;19359;51.402;6.778;2024-02-23T11:55:45;643.45;;;117.32;;
7783;SDS011;19359;51.402;6.778;2024-02-23T11:58:13;643.63;;;117.25;;
7783;SDS011;19359;51.402;6.778;2024-02-23T12:00:41;640.03;;;113.60;;
7783;SDS011;19359;51.402;6.778;2024-02-23T12:03:07;639.25;;;115.38;;
7783;SDS011;19359;51.402;6.778;2024-02-23T12:05:35;642.50;;;118.70;;
7783;SDS011;19359;51.402;6.778;2024-02-23T12:08:01;642.28;;;116.57;;
7783;SDS011;19359;51.402;6.778;2024-02-23T12:10:29;641.15;;;116.88;;
7783;SDS011;19359;51.402;6.778;2024-02-23T12:12:57;640.15;;;116.82;;
7783;SDS011;19359;51.402;6.778;2024-02-23T12:15:24;641.30;;;114.50;;
7783;SDS011;19359;51.402;6.778;2024-02-23T12:17:53;647.45;;;121.22;;
7783;SDS011;19359;51.402;6.778;2024-02-23T12:20:23;643.72;;;119.15;;
7783;SDS011;19359;51.402;6.778;2024-02-23T12:22:50;649.35;;;118.38;;
7783;SDS011;19359;51.402;6.778;2024-02-23T12:25:20;640.30;;;114.85;;
7783;SDS011;19359;51.402;6.778;2024-02-23T12:27:48;643.10;;;117.57;;
7783;SDS011;19359;51.402;6.778;2024-02-23T12:30:21;643.35;;;120.05;;
7783;SDS011;19359;51.402;6.778;2024-02-23T12:32:48;645.45;;;120.18;;
7783;SDS011;19359;51.402;6.778;2024-02-23T12:35:15;643.10;;;118.25;;
7783;SDS011;19359;51.402;6.778;2024-02-23T12:37:42;646.15;;;122.07;;
7783;SDS011;19359;51.402;6.778;2024-02-23T12:40:10;645.75;;;123.63;;
7783;SDS011;19359;51.402;6.778;2024-02-23T12:42:37;644.25;;;119.97;;
7783;SDS011;19359;51.402;6.778;2024-02-23T12:45:04;645.13;;;123.40;;
7783;SDS011;19359;51.402;6.778;2024-02-23T12:47:33;641.17;;;115.90;;
7783;SDS011;19359;51.402;6.778;2024-02-23T12:49:59;643.83;;;117.65;;
7783;SDS011;19359;51.402;6.778;2024-02-23T12:52:26;645.13;;;119.57;;
7783;SDS011;19359;51.402;6.778;2024-02-23T12:54:53;642.17;;;120.57;;
7783;SDS011;19359;51.402;6.778;2024-02-23T12:57:20;648.97;;;122.05;;
7783;SDS011;19359;51.402;6.778;2024-02-23T12:59:46;646.33;;;122.07;;
7783;SDS011;19359;51.402;6.778;2024-02-23T13:02:13;644.97;;;123.50;;
7783;SDS011;19359;51.402;6.778;2024-02-23T13:04:41;642.72;;;120.90;;
7783;SDS011;19359;51.402;6.778;2024-02-23T13:07:13;645.20;;;123.30;;
7783;SDS011;19359;51.402;6.778;2024-02-23T13:09:40;645.42;;;122.80;;
7783;SDS011;19359;51.402;6.778;2024-02-23T13:12:07;645.40;;;123.03;;
7783;SDS011;19359;51.402;6.778;2024-02-23T13:14:34;642.75;;;120.47;;
7783;SDS011;19359;51.402;6.778;2024-02-23T13:17:00;643.08;;;121.43;;
7783;SDS011;19359;51.402;6.778;2024-02-23T13:19:28;642.97;;;119.38;;
7783;SDS011;19359;51.402;6.778;2024-02-23T13:21:56;647.50;;;122.95;;
7783;SDS011;19359;51.402;6.778;2024-02-23T13:24:25;644.83;;;123.72;;
7783;SDS011;19359;51.402;6.778;2024-02-23T13:26:52;645.25;;;121.47;;
7783;SDS011;19359;51.402;6.778;2024-02-23T13:29:18;644.45;;;121.10;;
7783;SDS011;19359;51.402;6.778;2024-02-23T13:31:46;645.65;;;125.63;;
7783;SDS011;19359;51.402;6.778;2024-02-23T13:34:12;644.53;;;124.15;;
7783;SDS011;19359;51.402;6.778;2024-02-23T13:36:41;649.35;;;126.78;;
7783;SDS011;19359;51.402;6.778;2024-02-23T13:39:09;645.63;;;121.90;;
7783;SDS011;19359;51.402;6.778;2024-02-23T13:41:36;645.75;;;121.57;;
7783;SDS011;19359;51.402;6.778;2024-02-23T13:44:03;643.08;;;120.95;;
7783;SDS011;19359;51.402;6.778;2024-02-23T13:46:30;647.15;;;127.03;;
7783;SDS011;19359;51.402;6.778;2024-02-23T13:49:03;645.47;;;122.47;;
7783;SDS011;19359;51.402;6.778;2024-02-23T13:51:32;646.75;;;124.18;;
7783;SDS011;19359;51.402;6.778;2024-02-23T13:53:59;648.88;;;124.00;;
7783;SDS011;19359;51.402;6.778;2024-02-23T13:56:27;646.50;;;123.15;;
7783;SDS011;19359;51.402;6.778;2024-02-23T13:58:54;649.30;;;127.30;;
7783;SDS011;19359;51.402;6.778;2024-02-23T14:01:21;646.28;;;125.70;;
7783;SDS011;19359;51.402;6.778;2024-02-23T14:03:47;645.83;;;125.85;;
7783;SDS011;19359;51.402;6.778;2024-02-23T14:06:14;646.88;;;124.15;;
7783;SDS011;19359;51.402;6.778;2024-02-23T14:08:41;648.05;;;127.05;;
7783;SDS011;19359;51.402;6.778;2024-02-23T14:11:09;644.72;;;123.68;;
7783;SDS011;19359;51.402;6.778;2024-02-23T14:13:37;647.17;;;123.88;;